Time;durP1;ratioP1;P1;durP2;ratioP2;P2;SDS_P1;SDS_P2;PMS_P1;PMS_P2;Temp;Humidity;BMP_temperature;BMP_pressure;BME280_temperature;BME280_humidity;BME280_pressure;Samples;Min_cycle;Max_cycle;Signal;HPM_P1;HPM_P2
2024/01/09 00:01:09;;;;;;;8.85;3.42;;;-3.20;99.90;;;;;;5044301;28;20045;-64
2024/01/09 00:03:35;;;;;;;6.03;3.10;;;-3.30;99.90;;;;;;5034077;28;20045;-63
2024/01/09 00:06:01;;;;;;;6.97;3.50;;;-3.30;99.90;;;;;;5038097;28;20422;-63
2024/01/09 00:08:26;;;;;;;8.82;4.35;;;-3.30;99.90;;;;;;5014351;28;20543;-62
2024/01/09 00:10:52;;;;;;;6.10;3.92;;;-3.40;99.90;;;;;;5041143;28;20443;-62
2024/01/09 00:13:17;;;;;;;8.80;3.60;;;-3.40;99.90;;;;;;5018260;28;20123;-63
2024/01/09 00:15:43;;;;;;;7.38;3.58;;;-3.40;99.90;;;;;;5022887;28;20037;-63
2024/01/09 00:18:09;;;;;;;9.80;3.72;;;-3.40;99.90;;;;;;5022826;28;20442;-63
2024/01/09 00:20:35;;;;;;;5.22;3.13;;;-3.40;99.90;;;;;;5033826;28;20040;-63
2024/01/09 00:23:00;;;;;;;8.60;4.10;;;-3.40;99.90;;;;;;5038641;28;20095;-63
2024/01/09 00:25:26;;;;;;;6.80;3.63;;;-3.50;99.90;;;;;;5029341;28;20557;-63
2024/01/09 00:27:51;;;;;;;9.57;3.95;;;-3.50;99.90;;;;;;5028889;28;20038;-62
2024/01/09 00:30:19;;;;;;;6.55;3.80;;;-3.40;99.90;;;;;;5025904;28;20676;-63
2024/01/09 00:32:47;;;;;;;7.45;3.75;;;-3.40;99.90;;;;;;5038209;28;20147;-63
2024/01/09 00:35:14;;;;;;;5.65;3.53;;;-3.50;99.90;;;;;;5045442;28;20044;-62
2024/01/09 00:37:41;;;;;;;6.97;3.35;;;-3.50;99.90;;;;;;5040560;28;20124;-63
2024/01/09 00:40:08;;;;;;;8.70;4.03;;;-3.50;99.90;;;;;;5040724;28;20477;-64
2024/01/09 00:42:33;;;;;;;8.68;3.55;;;-3.40;99.90;;;;;;5028834;28;20441;-62
2024/01/09 00:45:02;;;;;;;9.00;3.60;;;-3.50;99.90;;;;;;5039621;28;20083;-64
2024/01/09 00:47:27;;;;;;;11.70;4.15;;;-3.50;99.90;;;;;;5028600;28;20041;-63
2024/01/09 00:49:53;;;;;;;5.35;3.60;;;-3.50;99.90;;;;;;5017138;28;20033;-62
2024/01/09 00:52:19;;;;;;;6.63;3.30;;;-3.50;99.90;;;;;;5032141;28;20120;-62
2024/01/09 00:54:45;;;;;;;5.40;3.28;;;-3.60;99.90;;;;;;5029018;28;20043;-62
2024/01/09 00:57:11;;;;;;;11.90;4.00;;;-3.60;99.90;;;;;;5035045;28;20040;-62
2024/01/09 00:59:37;;;;;;;6.22;3.20;;;-3.70;99.90;;;;;;5041164;28;20041;-63
2024/01/09 01:02:03;;;;;;;7.03;3.70;;;-3.70;99.90;;;;;;5041470;28;20044;-62
2024/01/09 01:04:28;;;;;;;6.93;3.35;;;-3.80;99.90;;;;;;5047835;28;20606;-63
2024/01/09 01:06:54;;;;;;;4.45;2.97;;;-3.80;99.90;;;;;;5028055;28;20045;-62
2024/01/09 01:09:19;;;;;;;5.82;2.50;;;-3.80;99.90;;;;;;5029171;28;20041;-62
2024/01/09 01:11:45;;;;;;;7.00;2.92;;;-3.80;99.90;;;;;;5028471;28;20092;-62
2024/01/09 01:14:11;;;;;;;12.10;3.58;;;-3.80;99.90;;;;;;5046194;28;20040;-62
2024/01/09 01:16:36;;;;;;;8.63;3.30;;;-3.80;99.90;;;;;;5033618;28;20490;-62
2024/01/09 01:19:02;;;;;;;6.22;3.55;;;-3.80;99.90;;;;;;5030634;28;20045;-62
2024/01/09 01:21:28;;;;;;;10.80;4.10;;;-3.80;99.90;;;;;;5038381;28;20041;-62
2024/01/09 01:23:53;;;;;;;7.32;2.92;;;-3.80;99.90;;;;;;5032915;28;20049;-62
2024/01/09 01:26:19;;;;;;;7.30;3.80;;;-3.70;99.90;;;;;;5046138;28;20041;-62
2024/01/09 01:28:45;;;;;;;6.50;2.90;;;-3.80;99.90;;;;;;5030340;28;20041;-62
2024/01/09 01:31:10;;;;;;;7.55;3.70;;;-3.80;99.90;;;;;;5034028;28;20053;-62
2024/01/09 01:33:36;;;;;;;7.40;3.35;;;-3.80;99.90;;;;;;5046482;28;20038;-62
2024/01/09 01:36:03;;;;;;;6.63;3.40;;;-3.90;99.90;;;;;;5029504;28;20536;-62
2024/01/09 01:38:28;;;;;;;6.32;3.58;;;-3.90;99.90;;;;;;5031655;28;20077;-62
2024/01/09 01:40:54;;;;;;;10.18;4.47;;;-3.90;99.90;;;;;;5042649;28;20132;-62
2024/01/09 01:43:20;;;;;;;6.25;3.53;;;-3.90;99.90;;;;;;5031615;28;20044;-62
2024/01/09 01:45:45;;;;;;;7.25;3.50;;;-3.90;99.90;;;;;;5033365;28;20114;-61
2024/01/09 01:48:11;;;;;;;7.00;3.67;;;-3.90;99.90;;;;;;5032316;28;20116;-62
2024/01/09 01:50:38;;;;;;;7.88;3.63;;;-3.90;99.90;;;;;;5034759;28;20070;-62
2024/01/09 01:53:06;;;;;;;5.60;3.25;;;-3.90;99.90;;;;;;5039263;28;20041;-62
2024/01/09 01:55:34;;;;;;;8.43;3.50;;;-3.90;99.90;;;;;;5033071;28;20041;-63
2024/01/09 01:58:00;;;;;;;7.97;3.80;;;-3.90;99.90;;;;;;5032170;28;20034;-62
2024/01/09 02:00:27;;;;;;;9.27;3.97;;;-3.90;99.90;;;;;;5039115;28;20045;-62
2024/01/09 02:02:53;;;;;;;8.00;3.90;;;-3.90;99.90;;;;;;5041998;28;20078;-62
2024/01/09 02:05:22;;;;;;;6.05;3.63;;;-3.90;99.90;;;;;;5042188;28;20083;-62
2024/01/09 02:07:50;;;;;;;5.57;2.90;;;-4.00;99.90;;;;;;5032615;28;20049;-62
2024/01/09 02:10:16;;;;;;;7.10;3.53;;;-3.90;99.90;;;;;;5029646;28;20047;-62
2024/01/09 02:12:42;;;;;;;11.20;4.13;;;-4.00;99.90;;;;;;5036660;28;20048;-62
2024/01/09 02:15:08;;;;;;;12.38;4.30;;;-4.00;99.90;;;;;;5038844;28;20029;-63
2024/01/09 02:17:34;;;;;;;6.88;3.60;;;-4.00;99.90;;;;;;5032034;28;20111;-61
2024/01/09 02:20:01;;;;;;;7.95;4.20;;;-4.00;99.90;;;;;;5030064;28;20048;-62
2024/01/09 02:22:26;;;;;;;5.28;3.33;;;-4.00;99.90;;;;;;5030703;28;20084;-62
2024/01/09 02:24:52;;;;;;;6.88;3.83;;;-4.10;99.90;;;;;;5031457;28;20041;-63
2024/01/09 02:27:44;;;;;;;5.80;3.00;;;-4.00;99.90;;;;;;5030839;28;20116;-63
2024/01/09 02:30:10;;;;;;;6.72;3.28;;;-4.00;99.90;;;;;;5030812;28;20081;-62
2024/01/09 02:32:37;;;;;;;6.50;3.80;;;-4.00;99.90;;;;;;5030412;28;20037;-62
2024/01/09 02:35:02;;;;;;;6.57;3.55;;;-4.00;99.90;;;;;;5030631;28;20099;-62
2024/01/09 02:37:28;;;;;;;5.65;3.20;;;-4.10;99.90;;;;;;5030860;28;20123;-63
2024/01/09 02:40:00;;;;;;;7.68;3.25;;;-4.00;99.90;;;;;;5041224;28;20046;-62
2024/01/09 02:42:26;;;;;;;6.53;3.45;;;-4.00;99.90;;;;;;5032054;28;20316;-62
2024/01/09 02:44:54;;;;;;;8.73;3.97;;;-4.10;99.90;;;;;;5039806;28;20060;-66
2024/01/09 02:47:21;;;;;;;5.78;3.92;;;-4.10;99.90;;;;;;5041884;28;20056;-62
2024/01/09 02:49:46;;;;;;;7.20;3.50;;;-4.10;99.90;;;;;;5047575;28;20496;-62
2024/01/09 02:52:12;;;;;;;5.82;3.72;;;-4.10;99.90;;;;;;5029834;28;20045;-63
2024/01/09 02:54:38;;;;;;;7.63;3.42;;;-4.10;99.90;;;;;;5038910;28;20068;-63
2024/01/09 02:57:04;;;;;;;7.13;3.70;;;-4.10;99.90;;;;;;5040091;28;20029;-62
2024/01/09 02:59:29;;;;;;;8.45;3.63;;;-4.10;99.90;;;;;;5041889;28;20060;-62
2024/01/09 03:01:55;;;;;;;6.88;3.65;;;-4.10;99.90;;;;;;5042019;28;20413;-63
2024/01/09 03:04:20;;;;;;;7.75;3.63;;;-4.10;99.90;;;;;;5035442;28;20029;-62
2024/01/09 03:06:46;;;;;;;8.10;3.58;;;-4.10;99.90;;;;;;5031622;28;20083;-62
2024/01/09 03:09:12;;;;;;;6.35;3.38;;;-4.10;99.90;;;;;;5045345;28;20378;-62
2024/01/09 03:11:38;;;;;;;7.43;3.92;;;-4.20;99.90;;;;;;5048648;28;20065;-62
2024/01/09 03:14:03;;;;;;;7.45;3.55;;;-4.20;99.90;;;;;;5049726;28;20037;-62
2024/01/09 03:16:29;;;;;;;7.30;3.30;;;-4.20;99.90;;;;;;5032188;28;20045;-61
2024/01/09 03:18:54;;;;;;;5.38;3.00;;;-4.30;99.90;;;;;;5013304;28;20504;-62
2024/01/09 03:21:20;;;;;;;5.82;3.10;;;-4.30;99.90;;;;;;5040996;28;20041;-62
2024/01/09 03:23:45;;;;;;;8.13;3.30;;;-4.30;99.90;;;;;;5046072;28;20135;-62
2024/01/09 03:26:11;;;;;;;9.32;4.00;;;-4.30;99.90;;;;;;5032798;28;20043;-62
2024/01/09 03:28:37;;;;;;;5.78;3.17;;;-4.30;99.90;;;;;;5036765;28;20056;-63
2024/01/09 03:31:03;;;;;;;8.65;3.88;;;-4.30;99.90;;;;;;5031769;28;20045;-62
2024/01/09 03:33:29;;;;;;;8.98;3.30;;;-4.40;99.90;;;;;;5030313;28;20037;-62
2024/01/09 03:35:54;;;;;;;7.50;3.88;;;-4.40;99.90;;;;;;5014493;28;20131;-62
2024/01/09 03:38:20;;;;;;;5.25;2.75;;;-4.40;99.90;;;;;;5032246;28;20619;-62
2024/01/09 03:40:46;;;;;;;11.95;3.58;;;-4.40;99.90;;;;;;5029527;28;20116;-62
2024/01/09 03:43:11;;;;;;;7.68;3.03;;;-4.40;99.90;;;;;;5034833;28;20417;-62
2024/01/09 03:45:37;;;;;;;7.63;3.70;;;-4.40;99.90;;;;;;5033042;28;20174;-62
2024/01/09 03:48:03;;;;;;;6.25;3.22;;;-4.50;99.90;;;;;;5030987;28;20025;-62
2024/01/09 03:50:29;;;;;;;8.93;3.30;;;-4.40;99.90;;;;;;5030190;28;20504;-62
2024/01/09 03:52:54;;;;;;;6.95;3.22;;;-4.40;99.90;;;;;;5035764;28;20115;-62
2024/01/09 03:55:20;;;;;;;6.38;3.22;;;-4.50;99.90;;;;;;5036766;28;20033;-62
2024/01/09 03:57:46;;;;;;;5.75;3.03;;;-4.50;99.90;;;;;;5044395;28;20041;-62
2024/01/09 04:00:12;;;;;;;8.13;3.40;;;-4.60;99.90;;;;;;5028519;28;20138;-63
2024/01/09 04:02:38;;;;;;;7.57;3.00;;;-4.60;99.90;;;;;;5040030;28;20055;-61
2024/01/09 04:05:06;;;;;;;6.63;3.72;;;-4.60;99.90;;;;;;5026042;28;20507;-62
2024/01/09 04:07:31;;;;;;;8.57;3.55;;;-4.60;99.90;;;;;;5016275;28;20063;-62
2024/01/09 04:09:57;;;;;;;5.32;3.13;;;-4.60;99.90;;;;;;5042599;28;20045;-62
2024/01/09 04:12:22;;;;;;;8.35;3.35;;;-4.60;99.90;;;;;;5029288;28;20048;-62
2024/01/09 04:14:48;;;;;;;6.53;3.22;;;-4.60;99.90;;;;;;5028045;28;20076;-62
2024/01/09 04:17:14;;;;;;;7.95;3.95;;;-4.60;99.90;;;;;;5033681;28;20377;-62
2024/01/09 04:19:39;;;;;;;6.55;2.80;;;-4.70;99.90;;;;;;5017658;28;20034;-62
2024/01/09 04:22:06;;;;;;;8.52;3.30;;;-4.70;99.90;;;;;;5039167;28;20084;-61
2024/01/09 04:24:33;;;;;;;6.85;3.85;;;-4.70;99.90;;;;;;5033831;28;20124;-62
2024/01/09 04:26:58;;;;;;;7.22;3.00;;;-4.70;99.90;;;;;;5033651;28;20096;-61
2024/01/09 04:29:25;;;;;;;9.48;3.47;;;-4.80;99.90;;;;;;5027693;28;20041;-62
2024/01/09 04:31:51;;;;;;;6.78;3.20;;;-4.80;99.90;;;;;;5039829;28;20095;-62
2024/01/09 04:34:16;;;;;;;5.60;3.47;;;-4.80;99.90;;;;;;5026600;28;20040;-62
2024/01/09 04:36:42;;;;;;;6.78;3.38;;;-4.80;99.90;;;;;;5031448;28;20041;-61
2024/01/09 04:39:07;;;;;;;5.65;2.78;;;-4.90;99.90;;;;;;5033643;28;20080;-62
2024/01/09 04:41:33;;;;;;;7.47;2.80;;;-4.90;99.90;;;;;;5036967;28;20140;-62
2024/01/09 04:43:59;;;;;;;6.85;3.40;;;-4.90;99.90;;;;;;5033817;28;20163;-61
2024/01/09 04:46:24;;;;;;;5.40;3.13;;;-4.90;99.90;;;;;;5034347;28;20504;-61
2024/01/09 04:48:50;;;;;;;7.22;3.20;;;-4.90;99.90;;;;;;5029003;28;20037;-62
2024/01/09 04:51:16;;;;;;;5.97;3.17;;;-4.80;99.90;;;;;;5028310;28;20033;-61
2024/01/09 04:53:41;;;;;;;6.35;3.40;;;-4.90;99.90;;;;;;5037590;28;20311;-62
2024/01/09 04:56:08;;;;;;;7.65;3.10;;;-4.90;99.90;;;;;;5041256;28;20508;-62
2024/01/09 04:58:34;;;;;;;8.38;3.20;;;-4.90;99.90;;;;;;5046433;28;20072;-63
2024/01/09 05:00:59;;;;;;;6.95;3.00;;;-4.90;99.90;;;;;;5049444;28;20083;-62
2024/01/09 05:03:25;;;;;;;5.13;3.22;;;-4.90;99.90;;;;;;5049452;28;20612;-61
2024/01/09 05:05:51;;;;;;;5.88;3.30;;;-4.90;99.90;;;;;;5042525;28;20186;-62
2024/01/09 05:08:16;;;;;;;5.82;2.90;;;-4.90;99.90;;;;;;5031738;28;20033;-62
2024/01/09 05:10:42;;;;;;;6.97;3.53;;;-4.90;99.90;;;;;;5035451;28;20338;-61
2024/01/09 05:13:09;;;;;;;8.43;2.88;;;-5.00;99.90;;;;;;5035684;28;20093;-62
2024/01/09 05:15:35;;;;;;;8.43;3.15;;;-5.00;99.90;;;;;;5030856;28;20057;-62
2024/01/09 05:18:01;;;;;;;5.07;3.13;;;-5.00;99.90;;;;;;5031903;28;20041;-62
2024/01/09 05:20:27;;;;;;;4.72;3.13;;;-5.00;99.90;;;;;;5036199;28;20055;-61
2024/01/09 05:22:52;;;;;;;6.05;3.28;;;-5.10;99.90;;;;;;5037050;28;20045;-62
2024/01/09 05:25:18;;;;;;;8.07;3.88;;;-5.00;99.90;;;;;;5033821;28;20056;-61
2024/01/09 05:27:44;;;;;;;6.70;3.53;;;-5.10;99.90;;;;;;5033251;28;20107;-62
2024/01/09 05:30:10;;;;;;;6.03;3.05;;;-5.10;99.90;;;;;;5037077;28;20041;-62
2024/01/09 05:32:35;;;;;;;5.75;3.10;;;-5.10;99.90;;;;;;5037358;28;20052;-62
2024/01/09 05:35:02;;;;;;;6.72;3.28;;;-5.10;99.90;;;;;;5044281;28;20473;-62
2024/01/09 05:37:28;;;;;;;5.38;2.75;;;-5.10;99.90;;;;;;5036281;28;20064;-61
2024/01/09 05:39:53;;;;;;;5.97;2.88;;;-5.10;99.90;;;;;;5032896;28;20029;-61
2024/01/09 05:42:19;;;;;;;7.45;3.50;;;-5.10;99.90;;;;;;5042764;28;20369;-62
2024/01/09 05:44:44;;;;;;;7.82;3.13;;;-5.10;99.90;;;;;;5015979;28;20041;-62
2024/01/09 05:47:10;;;;;;;7.72;3.50;;;-5.10;99.90;;;;;;5035602;28;20037;-63
2024/01/09 05:49:36;;;;;;;8.85;3.90;;;-5.10;99.90;;;;;;5044252;28;20047;-63
2024/01/09 05:52:01;;;;;;;8.05;3.47;;;-5.10;99.90;;;;;;5048002;28;20037;-63
2024/01/09 05:54:27;;;;;;;7.13;2.95;;;-5.20;99.90;;;;;;5032022;28;20458;-62
2024/01/09 05:56:53;;;;;;;10.70;3.67;;;-5.20;99.90;;;;;;5032140;28;20046;-62
2024/01/09 05:59:19;;;;;;;5.93;3.58;;;-5.20;99.90;;;;;;5044979;28;20045;-62
2024/01/09 06:01:44;;;;;;;5.85;3.65;;;-5.20;99.90;;;;;;5033894;28;20047;-61
2024/01/09 06:04:10;;;;;;;8.07;3.60;;;-5.20;99.90;;;;;;5031444;28;20045;-62
2024/01/09 06:06:36;;;;;;;3.97;2.65;;;-5.20;99.90;;;;;;5033275;28;20080;-62
2024/01/09 06:09:02;;;;;;;6.65;3.72;;;-5.20;99.90;;;;;;5031072;28;20037;-62
2024/01/09 06:11:28;;;;;;;7.88;3.83;;;-5.30;99.90;;;;;;5046727;28;20033;-62
2024/01/09 06:13:55;;;;;;;7.47;3.65;;;-5.30;99.90;;;;;;5040200;28;20029;-63
2024/01/09 06:16:22;;;;;;;7.55;3.20;;;-5.30;99.90;;;;;;5035054;28;20064;-62
2024/01/09 06:18:47;;;;;;;8.00;3.42;;;-5.30;99.90;;;;;;5030928;28;20045;-62
2024/01/09 06:21:13;;;;;;;8.98;3.78;;;-5.30;99.90;;;;;;5037215;28;20049;-62
2024/01/09 06:23:39;;;;;;;5.93;3.13;;;-5.30;99.90;;;;;;5044483;28;20112;-62
2024/01/09 06:26:04;;;;;;;8.88;3.75;;;-5.30;99.90;;;;;;5032152;28;20124;-61
2024/01/09 06:28:31;;;;;;;7.18;2.97;;;-5.40;99.90;;;;;;5039302;28;20473;-63
2024/01/09 06:30:57;;;;;;;8.75;3.45;;;-5.30;99.90;;;;;;5030698;28;20057;-62
2024/01/09 06:33:22;;;;;;;6.05;2.88;;;-5.40;99.90;;;;;;5031136;28;20505;-61
2024/01/09 06:35:48;;;;;;;5.55;2.80;;;-5.40;99.90;;;;;;5025917;28;20040;-62
2024/01/09 06:38:14;;;;;;;5.97;2.60;;;-5.40;99.90;;;;;;5032597;28;20072;-62
2024/01/09 06:40:39;;;;;;;7.18;3.40;;;-5.50;99.90;;;;;;5045721;28;20781;-62
2024/01/09 06:43:07;;;;;;;5.30;3.10;;;-5.40;99.90;;;;;;5043853;28;20490;-62
2024/01/09 06:45:34;;;;;;;7.70;3.03;;;-5.50;99.90;;;;;;5034762;28;20049;-62
2024/01/09 06:47:59;;;;;;;6.72;3.08;;;-5.50;99.90;;;;;;5031113;28;20374;-62
2024/01/09 06:50:25;;;;;;;7.30;3.55;;;-5.50;99.90;;;;;;5030433;28;20033;-62
2024/01/09 06:52:50;;;;;;;7.07;3.20;;;-5.50;99.90;;;;;;5030012;28;20757;-62
2024/01/09 06:55:17;;;;;;;7.13;3.13;;;-5.50;99.90;;;;;;5032856;28;20045;-62
2024/01/09 06:57:42;;;;;;;8.25;3.63;;;-5.50;99.90;;;;;;5036774;28;20036;-62
2024/01/09 07:00:08;;;;;;;4.63;2.55;;;-5.50;99.90;;;;;;5039331;28;20583;-62
2024/01/09 07:02:34;;;;;;;4.90;2.65;;;-5.50;99.90;;;;;;5032567;28;20087;-62
2024/01/09 07:05:00;;;;;;;7.18;3.47;;;-5.50;99.90;;;;;;5041854;28;20116;-62
2024/01/09 07:07:26;;;;;;;8.32;3.97;;;-5.50;99.90;;;;;;5038028;28;20083;-62
2024/01/09 07:09:52;;;;;;;6.85;3.22;;;-5.50;99.90;;;;;;5017882;28;20311;-61
2024/01/09 07:12:17;;;;;;;7.60;3.47;;;-5.50;99.90;;;;;;5043569;28;20049;-62
2024/01/09 07:14:43;;;;;;;8.00;3.67;;;-5.60;99.90;;;;;;5048562;28;20041;-62
2024/01/09 07:17:09;;;;;;;5.85;3.08;;;-5.60;99.90;;;;;;5044331;28;20777;-62
2024/01/09 07:19:34;;;;;;;6.47;3.10;;;-5.50;99.90;;;;;;5040718;28;20071;-62
2024/01/09 07:22:00;;;;;;;5.95;2.58;;;-5.50;99.90;;;;;;5040140;28;20044;-62
2024/01/09 07:24:26;;;;;;;8.10;3.85;;;-5.60;99.90;;;;;;5035036;28;20056;-62
2024/01/09 07:26:51;;;;;;;6.68;3.05;;;-5.50;99.90;;;;;;5036267;28;20158;-62
2024/01/09 07:29:19;;;;;;;7.63;3.53;;;-5.50;99.90;;;;;;5034314;28;20604;-62
2024/01/09 07:31:45;;;;;;;9.52;3.30;;;-5.60;99.90;;;;;;5049284;28;20057;-62
2024/01/09 07:34:11;;;;;;;8.32;3.47;;;-5.60;99.90;;;;;;5049987;28;20086;-62
2024/01/09 07:36:36;;;;;;;7.47;3.47;;;-5.60;99.90;;;;;;5045998;28;20118;-62
2024/01/09 07:39:02;;;;;;;7.68;3.25;;;-5.60;99.90;;;;;;5032952;28;20044;-63
2024/01/09 07:41:28;;;;;;;4.90;2.95;;;-5.60;99.90;;;;;;5030135;28;20045;-61
2024/01/09 07:43:53;;;;;;;6.80;3.53;;;-5.50;99.90;;;;;;5037730;28;20044;-62
2024/01/09 07:46:19;;;;;;;9.23;3.65;;;-5.60;99.90;;;;;;5031284;28;20041;-62
2024/01/09 07:48:45;;;;;;;7.10;3.20;;;-5.60;99.90;;;;;;5030358;28;20045;-63
2024/01/09 07:51:10;;;;;;;8.93;4.22;;;-5.60;99.90;;;;;;5041894;28;20065;-62
2024/01/09 07:53:36;;;;;;;6.63;3.50;;;-5.60;99.90;;;;;;5017174;28;20458;-62
2024/01/09 07:56:02;;;;;;;8.10;3.20;;;-5.60;99.90;;;;;;5029695;28;20509;-63
2024/01/09 07:58:27;;;;;;;6.43;3.10;;;-5.60;99.90;;;;;;5039050;28;20045;-61
2024/01/09 08:00:56;;;;;;;10.68;3.90;;;-5.60;99.90;;;;;;5042455;28;20120;-61
2024/01/09 08:03:21;;;;;;;7.75;3.33;;;-5.60;99.90;;;;;;5034582;28;20064;-62
2024/01/09 08:05:47;;;;;;;8.32;3.97;;;-5.60;99.90;;;;;;5027595;28;20041;-61
2024/01/09 08:08:12;;;;;;;10.93;3.55;;;-5.70;99.90;;;;;;5030566;28;20038;-61
2024/01/09 08:10:38;;;;;;;6.15;3.10;;;-5.60;99.90;;;;;;5038692;28;20075;-63
2024/01/09 08:13:04;;;;;;;6.95;3.00;;;-5.60;99.90;;;;;;5036959;28;20460;-62
2024/01/09 08:15:29;;;;;;;7.05;2.97;;;-5.50;99.90;;;;;;5027360;28;20140;-62
2024/01/09 08:17:55;;;;;;;6.75;3.13;;;-5.50;99.90;;;;;;5042766;28;20112;-62
2024/01/09 08:20:20;;;;;;;10.07;3.42;;;-5.50;99.90;;;;;;5043174;28;20071;-62
2024/01/09 08:22:48;;;;;;;5.65;2.75;;;-5.50;99.90;;;;;;5040809;28;20037;-62
2024/01/09 08:25:14;;;;;;;6.13;3.05;;;-5.40;99.90;;;;;;5033674;28;20079;-63
2024/01/09 08:27:40;;;;;;;7.40;3.30;;;-5.40;99.90;;;;;;5034970;28;20060;-62
2024/01/09 08:30:08;;;;;;;9.48;3.03;;;-5.30;99.90;;;;;;5036812;28;20125;-63
2024/01/09 08:32:33;;;;;;;8.10;3.72;;;-5.30;99.90;;;;;;5036218;28;20079;-62
2024/01/09 08:34:59;;;;;;;9.43;3.92;;;-5.20;99.90;;;;;;5043607;28;20033;-62
2024/01/09 08:37:25;;;;;;;6.30;3.53;;;-5.10;99.90;;;;;;5052791;28;20036;-63
2024/01/09 08:39:50;;;;;;;5.25;2.70;;;-5.10;99.90;;;;;;5043915;28;20045;-62
2024/01/09 08:42:16;;;;;;;8.85;3.97;;;-4.90;99.90;;;;;;5036047;28;20044;-62
2024/01/09 08:44:41;;;;;;;7.63;3.38;;;-4.80;99.90;;;;;;5043116;28;20036;-62
2024/01/09 08:47:07;;;;;;;8.65;3.72;;;-4.80;99.90;;;;;;5018957;28;20099;-62
2024/01/09 08:49:33;;;;;;;7.75;3.35;;;-4.70;99.90;;;;;;5033419;28;20033;-62
2024/01/09 08:51:58;;;;;;;9.50;3.63;;;-4.70;99.90;;;;;;5040856;28;20116;-61
2024/01/09 08:54:24;;;;;;;5.90;2.97;;;-4.70;99.90;;;;;;5032267;28;20069;-62
2024/01/09 08:56:50;;;;;;;7.35;3.45;;;-4.60;99.90;;;;;;5043480;28;20048;-63
2024/01/09 08:59:15;;;;;;;6.78;3.05;;;-4.60;99.90;;;;;;5034699;28;20478;-63
2024/01/09 09:01:41;;;;;;;7.63;3.40;;;-4.50;99.90;;;;;;5044182;28;20132;-62
2024/01/09 09:04:06;;;;;;;7.20;3.40;;;-4.50;99.90;;;;;;5038713;28;20308;-63
2024/01/09 09:06:32;;;;;;;5.75;3.63;;;-4.40;99.90;;;;;;5036130;28;20034;-63
2024/01/09 09:08:58;;;;;;;6.93;2.55;;;-4.40;99.90;;;;;;5036487;28;20033;-62
2024/01/09 09:11:23;;;;;;;8.02;3.40;;;-4.40;99.90;;;;;;5038281;28;20374;-63
2024/01/09 09:13:49;;;;;;;8.48;4.05;;;-4.30;99.90;;;;;;5033214;28;20041;-62
2024/01/09 09:16:15;;;;;;;6.63;3.22;;;-4.30;99.90;;;;;;5032919;28;20064;-62
2024/01/09 09:18:42;;;;;;;6.65;3.45;;;-4.10;99.90;;;;;;5037029;28;20524;-63
2024/01/09 09:21:08;;;;;;;5.90;3.00;;;-4.10;99.90;;;;;;5039896;28;20049;-64
2024/01/09 09:23:33;;;;;;;6.30;3.20;;;-4.00;99.90;;;;;;5044134;28;20422;-63
2024/01/09 09:25:59;;;;;;;7.07;3.40;;;-4.00;99.90;;;;;;5047029;28;20066;-63
2024/01/09 09:28:25;;;;;;;4.68;2.95;;;-4.00;99.90;;;;;;5034734;28;20048;-63
2024/01/09 09:30:50;;;;;;;5.85;3.00;;;-3.90;99.90;;;;;;5032078;28;20064;-63
2024/01/09 09:33:16;;;;;;;6.53;3.42;;;-3.90;99.90;;;;;;5038671;28;20043;-63
2024/01/09 09:35:42;;;;;;;4.20;2.63;;;-3.70;99.90;;;;;;5037005;28;20033;-63
2024/01/09 09:38:07;;;;;;;7.32;3.15;;;-3.70;99.90;;;;;;5030502;28;20053;-63
2024/01/09 09:40:33;;;;;;;4.38;2.97;;;-3.70;99.90;;;;;;5037712;28;20037;-63
2024/01/09 09:43:02;;;;;;;7.25;3.53;;;-3.70;99.90;;;;;;5015647;28;20041;-63
2024/01/09 09:45:30;;;;;;;7.53;3.40;;;-3.60;99.90;;;;;;5038742;28;20048;-63
2024/01/09 09:47:57;;;;;;;6.65;3.63;;;-3.60;99.90;;;;;;5040825;28;20363;-63
2024/01/09 09:50:23;;;;;;;5.20;2.60;;;-3.60;99.90;;;;;;5029844;28;20037;-63
2024/01/09 09:52:49;;;;;;;7.65;3.28;;;-3.50;99.90;;;;;;5039071;28;20036;-63
2024/01/09 09:55:16;;;;;;;6.32;3.25;;;-3.50;99.90;;;;;;5045137;28;20151;-63
2024/01/09 09:57:42;;;;;;;5.50;2.90;;;-3.50;99.90;;;;;;5033821;28;20420;-63
2024/01/09 10:00:08;;;;;;;7.45;3.47;;;-3.40;99.90;;;;;;5042186;28;20042;-64
2024/01/09 10:02:38;;;;;;;5.00;2.97;;;-3.40;99.90;;;;;;5030435;28;20037;-63
2024/01/09 10:05:16;;;;;;;8.57;3.28;;;-3.30;99.90;;;;;;5037297;28;20037;-63
2024/01/09 10:07:44;;;;;;;6.72;2.80;;;-3.20;99.90;;;;;;5040975;28;20091;-63
2024/01/09 10:10:12;;;;;;;6.40;3.10;;;-3.20;99.90;;;;;;5041499;28;20029;-64
2024/01/09 10:12:39;;;;;;;7.95;3.42;;;-3.20;99.90;;;;;;5029424;28;20076;-63
2024/01/09 10:15:09;;;;;;;6.72;3.35;;;-3.20;99.90;;;;;;5037173;28;20029;-64
2024/01/09 10:17:39;;;;;;;7.63;3.88;;;-3.10;99.90;;;;;;5044643;28;20037;-64
2024/01/09 10:20:08;;;;;;;7.40;2.97;;;-3.10;99.90;;;;;;5026343;28;23015;-65
2024/01/09 10:22:35;;;;;;;5.73;3.10;;;-3.10;99.90;;;;;;5013917;28;20362;-64
2024/01/09 10:25:12;;;;;;;6.18;3.10;;;-3.10;99.90;;;;;;5024398;28;20087;-65
2024/01/09 10:27:39;;;;;;;6.45;3.42;;;-3.10;99.90;;;;;;5035159;28;20056;-64
2024/01/09 10:30:09;;;;;;;6.80;3.28;;;-3.10;99.90;;;;;;5035474;28;20029;-65
2024/01/09 10:32:38;;;;;;;5.50;2.80;;;-3.10;99.90;;;;;;5046080;28;20510;-64
2024/01/09 10:35:04;;;;;;;7.07;3.38;;;-3.00;99.90;;;;;;5038878;28;20037;-64
2024/01/09 10:37:33;;;;;;;7.13;3.88;;;-3.00;99.90;;;;;;5033627;28;20068;-65
2024/01/09 10:39:59;;;;;;;9.07;3.40;;;-2.90;99.90;;;;;;5054288;28;20047;-64
2024/01/09 10:42:26;;;;;;;11.45;4.30;;;-2.90;99.90;;;;;;5043317;28;20041;-64
2024/01/09 10:44:51;;;;;;;8.73;3.35;;;-2.80;99.90;;;;;;5035039;28;20041;-65
2024/01/09 10:47:20;;;;;;;7.00;3.63;;;-2.70;99.90;;;;;;5043936;28;20361;-64
2024/01/09 10:49:46;;;;;;;7.22;3.03;;;-2.60;99.90;;;;;;5032840;28;20064;-64
2024/01/09 10:52:16;;;;;;;8.35;3.17;;;-2.50;99.90;;;;;;5013423;28;20087;-64
2024/01/09 10:54:43;;;;;;;4.47;3.00;;;-2.50;99.90;;;;;;5028345;28;20048;-64
2024/01/09 10:57:13;;;;;;;6.22;3.25;;;-2.40;99.90;;;;;;5033564;28;20064;-64
2024/01/09 10:59:43;;;;;;;5.95;3.03;;;-2.40;99.90;;;;;;5032295;28;20041;-64
2024/01/09 11:02:15;;;;;;;4.55;3.40;;;-2.50;99.90;;;;;;5042508;28;20045;-64
2024/01/09 11:04:44;;;;;;;4.00;2.60;;;-2.40;99.90;;;;;;5029078;28;20037;-63
2024/01/09 11:07:14;;;;;;;7.00;2.97;;;-2.40;99.90;;;;;;5029908;28;20068;-64
2024/01/09 11:09:44;;;;;;;;;;;-2.40;99.90;;;;;;5033882;28;20048;-65
2024/01/09 11:12:24;;;;;;;7.57;3.55;;;-2.30;99.90;;;;;;5031592;28;20325;-65
2024/01/09 11:14:56;;;;;;;5.72;3.20;;;-2.20;99.90;;;;;;5033296;28;20350;-65
2024/01/09 11:17:23;;;;;;;5.57;2.75;;;-2.20;99.90;;;;;;5037583;28;20103;-64
2024/01/09 11:19:49;;;;;;;5.43;3.00;;;-2.10;99.90;;;;;;5036865;28;20068;-64
2024/01/09 11:22:17;;;;;;;6.00;2.70;;;-2.10;99.90;;;;;;5030076;28;20056;-65
2024/01/09 11:24:49;;;;;;;5.82;2.83;;;-2.00;99.90;;;;;;5041513;28;20037;-66
2024/01/09 11:27:17;;;;;;;5.57;2.60;;;-2.00;99.90;;;;;;5030813;28;20045;-65
2024/01/09 11:29:50;;;;;;;6.00;3.03;;;-2.00;99.90;;;;;;5039135;28;20124;-66
2024/01/09 11:32:16;;;;;;;5.55;2.67;;;-1.90;99.90;;;;;;5029747;28;20065;-65
2024/01/09 11:34:46;;;;;;;6.03;2.72;;;-1.90;99.90;;;;;;5033071;28;20037;-64
2024/01/09 11:37:19;;;;;;;5.28;2.53;;;-1.80;99.90;;;;;;5031192;28;20037;-65
2024/01/09 11:39:44;;;;;;;4.38;2.55;;;-1.80;99.90;;;;;;5030241;28;20069;-65
2024/01/09 11:42:13;;;;;;;5.25;2.72;;;-1.70;99.90;;;;;;5035263;28;20076;-66
2024/01/09 11:44:39;;;;;;;4.40;2.70;;;-1.60;99.90;;;;;;5043196;28;20041;-66
2024/01/09 11:47:05;;;;;;;6.55;2.72;;;-1.60;99.90;;;;;;5014389;28;20614;-64
2024/01/09 11:49:31;;;;;;;7.20;3.45;;;-1.50;99.90;;;;;;5028929;28;20087;-65
2024/01/09 11:51:56;;;;;;;6.30;2.72;;;-1.50;99.90;;;;;;5029116;28;20535;-66
2024/01/09 11:54:22;;;;;;;6.30;3.03;;;-1.50;99.90;;;;;;5041527;28;20040;-65
2024/01/09 11:56:49;;;;;;;6.65;2.80;;;-1.50;99.90;;;;;;5047316;28;20040;-65
2024/01/09 11:59:18;;;;;;;4.05;2.58;;;-1.50;99.90;;;;;;5047360;28;20084;-65
2024/01/09 12:01:47;;;;;;;7.45;3.22;;;-1.50;99.90;;;;;;5033026;28;20030;-66
2024/01/09 12:04:14;;;;;;;4.40;2.35;;;-1.50;99.90;;;;;;5035075;28;20422;-65
2024/01/09 12:06:41;;;;;;;3.88;2.45;;;-1.40;99.90;;;;;;5030058;28;20128;-64
2024/01/09 12:09:09;;;;;;;5.05;2.67;;;-1.40;99.90;;;;;;5029061;28;20375;-66
2024/01/09 12:11:36;;;;;;;4.57;2.85;;;-1.40;99.90;;;;;;5031479;28;20486;-66
2024/01/09 12:14:02;;;;;;;5.00;2.30;;;-1.30;99.90;;;;;;5035352;28;20496;-66
2024/01/09 12:16:32;;;;;;;5.82;2.92;;;-1.30;99.90;;;;;;5029548;28;20045;-64
2024/01/09 12:18:59;;;;;;;6.95;2.92;;;-1.30;99.90;;;;;;5031302;28;20041;-65
2024/01/09 12:21:27;;;;;;;5.05;2.83;;;-1.30;99.90;;;;;;5029688;28;20077;-64
2024/01/09 12:23:59;;;;;;;5.32;2.40;;;-1.20;99.90;;;;;;5031966;28;20075;-64
2024/01/09 12:26:27;;;;;;;5.07;2.40;;;-1.20;99.90;;;;;;5039763;28;20047;-65
2024/01/09 12:28:54;;;;;;;6.32;2.58;;;-1.20;99.90;;;;;;5036712;28;20069;-66
2024/01/09 12:31:23;;;;;;;4.53;2.15;;;-1.10;99.90;;;;;;5029373;28;20060;-66
2024/01/09 12:33:49;;;;;;;6.72;2.10;;;-1.10;99.90;;;;;;5030483;28;20412;-65
2024/01/09 12:36:16;;;;;;;4.97;2.30;;;-1.10;99.90;;;;;;5037503;28;20034;-65
2024/01/09 12:38:42;;;;;;;5.30;2.65;;;-1.10;99.90;;;;;;5021844;28;20087;-65
2024/01/09 12:41:08;;;;;;;5.60;2.47;;;-1.00;99.90;;;;;;5038196;28;20162;-65